sensor_id;sensor_type;location;lat;lon;timestamp;pressure;altitude;pressure_sealevel;temperature;humidity
76086;BME280;64791;0.000;0.000;2023-10-31T00:00:33;94020.38;;;10.11;57.01
76086;BME280;64791;0.000;0.000;2023-10-31T00:02:59;94018.47;;;10.06;56.97
76086;BME280;64791;0.000;0.000;2023-10-31T00:05:25;94023.59;;;10.02;57.05
76086;BME280;64791;0.000;0.000;2023-10-31T00:07:50;94017.91;;;10.00;56.56
76086;BME280;64791;0.000;0.000;2023-10-31T00:10:16;94017.16;;;10.00;56.71
76086;BME280;64791;0.000;0.000;2023-10-31T00:12:42;94014.75;;;9.96;57.12
76086;BME280;64791;0.000;0.000;2023-10-31T00:15:07;94018.81;;;9.95;56.71
76086;BME280;64791;0.000;0.000;2023-10-31T00:17:33;94009.41;;;9.91;57.00
76086;BME280;64791;0.000;0.000;2023-10-31T00:19:59;94012.28;;;9.85;57.48
76086;BME280;64791;0.000;0.000;2023-10-31T00:22:25;94007.66;;;9.80;57.47
76086;BME280;64791;0.000;0.000;2023-10-31T00:24:51;94010.19;;;9.78;58.01
76086;BME280;64791;0.000;0.000;2023-10-31T00:27:16;94015.31;;;9.74;57.20
76086;BME280;64791;0.000;0.000;2023-10-31T00:29:42;94018.63;;;9.72;57.42
76086;BME280;64791;0.000;0.000;2023-10-31T00:32:08;94014.19;;;9.69;57.31
76086;BME280;64791;0.000;0.000;2023-10-31T00:34:34;94007.56;;;9.65;58.03
76086;BME280;64791;0.000;0.000;2023-10-31T00:37:00;94005.13;;;9.61;57.70
76086;BME280;64791;0.000;0.000;2023-10-31T00:39:26;93999.97;;;9.58;57.75
76086;BME280;64791;0.000;0.000;2023-10-31T00:41:51;94009.28;;;9.55;57.83
76086;BME280;64791;0.000;0.000;2023-10-31T00:44:17;94004.31;;;9.53;57.61
76086;BME280;64791;0.000;0.000;2023-10-31T00:46:43;93999.16;;;9.50;58.05
76086;BME280;64791;0.000;0.000;2023-10-31T00:49:09;93993.25;;;9.46;57.63
76086;BME280;64791;0.000;0.000;2023-10-31T00:51:35;93992.66;;;9.40;58.27
76086;BME280;64791;0.000;0.000;2023-10-31T00:54:00;93994.44;;;9.37;58.42
76086;BME280;64791;0.000;0.000;2023-10-31T00:56:27;93983.78;;;9.34;58.22
76086;BME280;64791;0.000;0.000;2023-10-31T00:58:53;93985.59;;;9.31;58.19
76086;BME280;64791;0.000;0.000;2023-10-31T01:01:19;93989.97;;;9.27;58.18
76086;BME280;64791;0.000;0.000;2023-10-31T01:03:44;93979.84;;;9.22;58.63
76086;BME280;64791;0.000;0.000;2023-10-31T01:06:10;93978.91;;;9.19;58.52
76086;BME280;64791;0.000;0.000;2023-10-31T01:08:35;93988.97;;;9.17;58.09
76086;BME280;64791;0.000;0.000;2023-10-31T01:11:01;93979.56;;;9.12;58.64
76086;BME280;64791;0.000;0.000;2023-10-31T01:13:27;93982.63;;;9.09;58.83
76086;BME280;64791;0.000;0.000;2023-10-31T01:15:53;93984.97;;;9.04;58.31
76086;BME280;64791;0.000;0.000;2023-10-31T01:18:19;93971.53;;;9.01;58.49
76086;BME280;64791;0.000;0.000;2023-10-31T01:20:46;93970.38;;;8.96;58.33
76086;BME280;64791;0.000;0.000;2023-10-31T01:23:12;93976.97;;;8.93;58.81
76086;BME280;64791;0.000;0.000;2023-10-31T01:25:37;93974.53;;;8.90;58.98
76086;BME280;64791;0.000;0.000;2023-10-31T01:28:03;93971.91;;;8.84;58.69
76086;BME280;64791;0.000;0.000;2023-10-31T01:30:29;93967.47;;;8.81;58.74
76086;BME280;64791;0.000;0.000;2023-10-31T01:32:55;93968.56;;;8.78;58.79
76086;BME280;64791;0.000;0.000;2023-10-31T01:35:20;93972.91;;;8.74;59.09
76086;BME280;64791;0.000;0.000;2023-10-31T01:37:46;93971.97;;;8.71;58.48
76086;BME280;64791;0.000;0.000;2023-10-31T01:40:14;93967.84;;;8.65;58.98
76086;BME280;64791;0.000;0.000;2023-10-31T01:42:40;93970.41;;;8.63;58.52
76086;BME280;64791;0.000;0.000;2023-10-31T01:45:06;93970.53;;;8.57;58.92
76086;BME280;64791;0.000;0.000;2023-10-31T01:47:32;93964.84;;;8.55;58.92
76086;BME280;64791;0.000;0.000;2023-10-31T01:49:58;93962.94;;;8.50;59.20
76086;BME280;64791;0.000;0.000;2023-10-31T01:52:24;93965.47;;;8.48;58.82
76086;BME280;64791;0.000;0.000;2023-10-31T01:54:50;93965.28;;;8.46;58.98
76086;BME280;64791;0.000;0.000;2023-10-31T01:57:16;93963.56;;;8.43;59.00
76086;BME280;64791;0.000;0.000;2023-10-31T01:59:44;93956.94;;;8.39;58.74
76086;BME280;64791;0.000;0.000;2023-10-31T02:02:10;93957.25;;;8.35;58.93
76086;BME280;64791;0.000;0.000;2023-10-31T02:04:35;93960.34;;;8.32;58.90
76086;BME280;64791;0.000;0.000;2023-10-31T02:07:01;93958.66;;;8.28;59.14
76086;BME280;64791;0.000;0.000;2023-10-31T02:09:29;93960.97;;;8.24;59.25
76086;BME280;64791;0.000;0.000;2023-10-31T02:11:56;93955.06;;;8.20;58.86
76086;BME280;64791;0.000;0.000;2023-10-31T02:14:22;93945.69;;;8.16;59.18
76086;BME280;64791;0.000;0.000;2023-10-31T02:16:48;93941.97;;;8.13;59.30
76086;BME280;64791;0.000;0.000;2023-10-31T02:19:14;93940.06;;;8.08;59.40
76086;BME280;64791;0.000;0.000;2023-10-31T02:21:41;93938.41;;;8.05;59.54
76086;BME280;64791;0.000;0.000;2023-10-31T02:24:07;93943.16;;;8.05;59.05
76086;BME280;64791;0.000;0.000;2023-10-31T02:26:34;93941.69;;;8.04;59.10
76086;BME280;64791;0.000;0.000;2023-10-31T02:29:00;93944.00;;;8.00;59.87
76086;BME280;64791;0.000;0.000;2023-10-31T02:31:26;93943.78;;;7.98;59.52
76086;BME280;64791;0.000;0.000;2023-10-31T02:33:52;93934.81;;;7.97;59.54
76086;BME280;64791;0.000;0.000;2023-10-31T02:36:18;93937.88;;;7.94;59.67
76086;BME280;64791;0.000;0.000;2023-10-31T02:38:44;93934.19;;;7.91;59.86
76086;BME280;64791;0.000;0.000;2023-10-31T02:41:10;93940.75;;;7.88;60.19
76086;BME280;64791;0.000;0.000;2023-10-31T02:43:37;93941.47;;;7.89;60.37
76086;BME280;64791;0.000;0.000;2023-10-31T02:46:03;93936.28;;;7.85;59.95
76086;BME280;64791;0.000;0.000;2023-10-31T02:48:28;93934.09;;;7.84;60.54
76086;BME280;64791;0.000;0.000;2023-10-31T02:50:54;93942.66;;;7.80;60.28
76086;BME280;64791;0.000;0.000;2023-10-31T02:53:20;93939.69;;;7.78;60.17
76086;BME280;64791;0.000;0.000;2023-10-31T02:55:46;93938.22;;;7.77;60.22
76086;BME280;64791;0.000;0.000;2023-10-31T02:58:11;93942.75;;;7.75;60.16
76086;BME280;64791;0.000;0.000;2023-10-31T03:00:37;93943.81;;;7.72;60.60
76086;BME280;64791;0.000;0.000;2023-10-31T03:03:02;93940.13;;;7.69;60.54
76086;BME280;64791;0.000;0.000;2023-10-31T03:05:28;93934.19;;;7.65;60.51
76086;BME280;64791;0.000;0.000;2023-10-31T03:07:54;93934.00;;;7.63;60.38
76086;BME280;64791;0.000;0.000;2023-10-31T03:10:20;93933.75;;;7.61;60.37
76086;BME280;64791;0.000;0.000;2023-10-31T03:12:46;93922.56;;;7.59;60.67
76086;BME280;64791;0.000;0.000;2023-10-31T03:15:12;93915.41;;;7.56;61.07
76086;BME280;64791;0.000;0.000;2023-10-31T03:17:38;93920.91;;;7.56;60.76
76086;BME280;64791;0.000;0.000;2023-10-31T03:20:04;93913.50;;;7.51;60.81
76086;BME280;64791;0.000;0.000;2023-10-31T03:22:30;93916.03;;;7.49;60.76
76086;BME280;64791;0.000;0.000;2023-10-31T03:24:56;93921.53;;;7.49;60.94
76086;BME280;64791;0.000;0.000;2023-10-31T03:27:22;93915.06;;;7.46;60.91
76086;BME280;64791;0.000;0.000;2023-10-31T03:29:48;93929.31;;;7.45;61.22
76086;BME280;64791;0.000;0.000;2023-10-31T03:32:14;93921.41;;;7.41;60.73
76086;BME280;64791;0.000;0.000;2023-10-31T03:34:40;93921.72;;;7.38;60.97
76086;BME280;64791;0.000;0.000;2023-10-31T03:37:05;93928.47;;;7.37;61.11
76086;BME280;64791;0.000;0.000;2023-10-31T03:39:31;93930.28;;;7.34;61.48
76086;BME280;64791;0.000;0.000;2023-10-31T03:41:57;93930.06;;;7.32;61.07
76086;BME280;64791;0.000;0.000;2023-10-31T03:44:23;93926.34;;;7.30;61.13
76086;BME280;64791;0.000;0.000;2023-10-31T03:46:49;93919.16;;;7.27;61.43
76086;BME280;64791;0.000;0.000;2023-10-31T03:49:15;93923.69;;;7.24;61.66
76086;BME280;64791;0.000;0.000;2023-10-31T03:51:40;93915.75;;;7.21;61.54
76086;BME280;64791;0.000;0.000;2023-10-31T03:54:06;93911.13;;;7.16;61.56
76086;BME280;64791;0.000;0.000;2023-10-31T03:56:38;93904.16;;;7.15;61.70
76086;BME280;64791;0.000;0.000;2023-10-31T03:59:03;93912.16;;;7.13;61.90
76086;BME280;64791;0.000;0.000;2023-10-31T04:01:29;93902.97;;;7.10;61.83
76086;BME280;64791;0.000;0.000;2023-10-31T04:03:55;93896.03;;;7.09;62.04
76086;BME280;64791;0.000;0.000;2023-10-31T04:06:20;93900.03;;;7.08;61.67
76086;BME280;64791;0.000;0.000;2023-10-31T04:08:45;93887.59;;;7.07;62.00
76086;BME280;64791;0.000;0.000;2023-10-31T04:11:11;93891.59;;;7.06;61.83
76086;BME280;64791;0.000;0.000;2023-10-31T04:13:37;93886.63;;;7.05;62.03
76086;BME280;64791;0.000;0.000;2023-10-31T04:16:02;93890.84;;;7.06;62.03
76086;BME280;64791;0.000;0.000;2023-10-31T04:18:28;93895.28;;;7.09;62.13
76086;BME280;64791;0.000;0.000;2023-10-31T04:20:54;93894.53;;;7.08;61.83
76086;BME280;64791;0.000;0.000;2023-10-31T04:23:20;93893.59;;;7.06;62.33
76086;BME280;64791;0.000;0.000;2023-10-31T04:25:45;93896.84;;;7.04;61.94
76086;BME280;64791;0.000;0.000;2023-10-31T04:28:11;93894.44;;;7.01;62.54
76086;BME280;64791;0.000;0.000;2023-10-31T04:30:39;93888.50;;;6.97;62.23
76086;BME280;64791;0.000;0.000;2023-10-31T04:33:04;93893.97;;;6.97;62.46
76086;BME280;64791;0.000;0.000;2023-10-31T04:35:30;93894.09;;;6.91;62.69
76086;BME280;64791;0.000;0.000;2023-10-31T04:37:56;93893.88;;;6.89;62.49
76086;BME280;64791;0.000;0.000;2023-10-31T04:40:22;93887.44;;;6.87;62.74
76086;BME280;64791;0.000;0.000;2023-10-31T04:42:48;93887.97;;;6.85;62.79
76086;BME280;64791;0.000;0.000;2023-10-31T04:45:14;93893.22;;;6.83;62.70
76086;BME280;64791;0.000;0.000;2023-10-31T04:47:40;93887.53;;;6.81;62.76
76086;BME280;64791;0.000;0.000;2023-10-31T04:50:06;93887.31;;;6.79;62.73
76086;BME280;64791;0.000;0.000;2023-10-31T04:52:33;93881.63;;;6.77;62.98
76086;BME280;64791;0.000;0.000;2023-10-31T04:54:58;93887.38;;;6.73;62.96
76086;BME280;64791;0.000;0.000;2023-10-31T04:57:24;93885.41;;;6.74;62.95
76086;BME280;64791;0.000;0.000;2023-10-31T04:59:49;93879.16;;;6.73;62.86
76086;BME280;64791;0.000;0.000;2023-10-31T05:02:16;93880.44;;;6.72;63.04
76086;BME280;64791;0.000;0.000;2023-10-31T05:04:42;93893.94;;;6.70;63.08
76086;BME280;64791;0.000;0.000;2023-10-31T05:07:07;93898.13;;;6.71;62.69
76086;BME280;64791;0.000;0.000;2023-10-31T05:09:33;93896.69;;;6.70;63.04
76086;BME280;64791;0.000;0.000;2023-10-31T05:11:59;93899.41;;;6.70;63.03
76086;BME280;64791;0.000;0.000;2023-10-31T05:14:25;93904.69;;;6.68;63.05
76086;BME280;64791;0.000;0.000;2023-10-31T05:16:51;93918.38;;;6.68;62.86
76086;BME280;64791;0.000;0.000;2023-10-31T05:19:17;93922.38;;;6.67;62.93
76086;BME280;64791;0.000;0.000;2023-10-31T05:21:42;93925.63;;;6.66;63.04
76086;BME280;64791;0.000;0.000;2023-10-31T05:24:08;93926.88;;;6.65;62.79
76086;BME280;64791;0.000;0.000;2023-10-31T05:26:33;93926.59;;;6.68;62.96
76086;BME280;64791;0.000;0.000;2023-10-31T05:28:59;93929.34;;;6.68;62.85
76086;BME280;64791;0.000;0.000;2023-10-31T05:31:26;93925.84;;;6.68;62.86
76086;BME280;64791;0.000;0.000;2023-10-31T05:33:52;93924.78;;;6.71;62.46
76086;BME280;64791;0.000;0.000;2023-10-31T05:36:24;93928.06;;;6.69;62.65
76086;BME280;64791;0.000;0.000;2023-10-31T05:38:49;93917.84;;;6.70;62.58
76086;BME280;64791;0.000;0.000;2023-10-31T05:41:15;93916.56;;;6.71;62.90
76086;BME280;64791;0.000;0.000;2023-10-31T05:43:41;93924.28;;;6.72;63.12
76086;BME280;64791;0.000;0.000;2023-10-31T05:46:07;93912.59;;;6.72;63.20
76086;BME280;64791;0.000;0.000;2023-10-31T05:48:38;93907.31;;;6.74;63.05
76086;BME280;64791;0.000;0.000;2023-10-31T05:51:04;93918.72;;;6.78;63.19
76086;BME280;64791;0.000;0.000;2023-10-31T05:53:35;93921.59;;;6.86;63.05
76086;BME280;64791;0.000;0.000;2023-10-31T05:56:01;93926.16;;;6.96;62.27
76086;BME280;64791;0.000;0.000;2023-10-31T05:58:27;93923.34;;;7.15;62.53
76086;BME280;64791;0.000;0.000;2023-10-31T06:00:53;93933.13;;;7.42;63.57
76086;BME280;64791;0.000;0.000;2023-10-31T06:03:19;93932.84;;;7.72;63.38
76086;BME280;64791;0.000;0.000;2023-10-31T06:05:45;93934.69;;;8.03;63.21
76086;BME280;64791;0.000;0.000;2023-10-31T06:08:11;93946.69;;;8.39;62.21
76086;BME280;64791;0.000;0.000;2023-10-31T06:10:37;93928.38;;;8.75;61.18
76086;BME280;64791;0.000;0.000;2023-10-31T06:13:03;93920.09;;;9.09;60.21
76086;BME280;64791;0.000;0.000;2023-10-31T06:15:29;93922.09;;;9.29;59.41
76086;BME280;64791;0.000;0.000;2023-10-31T06:17:55;93933.91;;;9.37;59.43
76086;BME280;64791;0.000;0.000;2023-10-31T06:20:20;93934.16;;;9.47;60.41
76086;BME280;64791;0.000;0.000;2023-10-31T06:22:46;93940.53;;;9.62;60.06
76086;BME280;64791;0.000;0.000;2023-10-31T06:25:12;93941.56;;;9.80;59.97
76086;BME280;64791;0.000;0.000;2023-10-31T06:27:38;93950.63;;;9.96;59.92
76086;BME280;64791;0.000;0.000;2023-10-31T06:30:03;93952.59;;;10.16;59.52
76086;BME280;64791;0.000;0.000;2023-10-31T06:32:29;93941.84;;;10.33;59.31
76086;BME280;64791;0.000;0.000;2023-10-31T06:34:55;93943.34;;;10.49;58.97
76086;BME280;64791;0.000;0.000;2023-10-31T06:37:21;93946.59;;;10.68;58.77
76086;BME280;64791;0.000;0.000;2023-10-31T06:39:47;93954.88;;;10.83;58.69
76086;BME280;64791;0.000;0.000;2023-10-31T06:42:13;93959.16;;;10.99;58.24
76086;BME280;64791;0.000;0.000;2023-10-31T06:44:38;93949.28;;;11.19;58.23
76086;BME280;64791;0.000;0.000;2023-10-31T06:47:04;93952.22;;;11.44;58.32
76086;BME280;64791;0.000;0.000;2023-10-31T06:49:29;93951.09;;;11.69;58.45
76086;BME280;64791;0.000;0.000;2023-10-31T06:51:55;93943.72;;;11.94;58.77
76086;BME280;64791;0.000;0.000;2023-10-31T06:54:21;93946.09;;;12.21;58.33
76086;BME280;64791;0.000;0.000;2023-10-31T06:56:47;93957.59;;;12.49;58.12
76086;BME280;64791;0.000;0.000;2023-10-31T06:59:13;93963.41;;;12.76;57.68
76086;BME280;64791;0.000;0.000;2023-10-31T07:01:38;93954.63;;;13.02;57.38
76086;BME280;64791;0.000;0.000;2023-10-31T07:04:04;93949.09;;;13.27;57.01
76086;BME280;64791;0.000;0.000;2023-10-31T07:06:30;93940.25;;;13.53;56.55
76086;BME280;64791;0.000;0.000;2023-10-31T07:08:55;93936.72;;;13.77;56.36
76086;BME280;64791;0.000;0.000;2023-10-31T07:11:22;93941.47;;;14.01;55.86
76086;BME280;64791;0.000;0.000;2023-10-31T07:13:48;93950.50;;;14.26;55.49
76086;BME280;64791;0.000;0.000;2023-10-31T07:16:14;93951.59;;;14.48;55.30
76086;BME280;64791;0.000;0.000;2023-10-31T07:18:40;93943.41;;;14.67;54.93
76086;BME280;64791;0.000;0.000;2023-10-31T07:21:06;93935.94;;;14.87;54.84
76086;BME280;64791;0.000;0.000;2023-10-31T07:23:32;93928.44;;;15.06;54.55
76086;BME280;64791;0.000;0.000;2023-10-31T07:25:58;93925.94;;;15.28;54.03
76086;BME280;64791;0.000;0.000;2023-10-31T07:28:23;93934.34;;;15.47;54.08
76086;BME280;64791;0.000;0.000;2023-10-31T07:30:49;93929.59;;;15.66;53.76
76086;BME280;64791;0.000;0.000;2023-10-31T07:33:15;93929.53;;;15.83;53.42
76086;BME280;64791;0.000;0.000;2023-10-31T07:35:41;93920.88;;;15.99;53.10
76086;BME280;64791;0.000;0.000;2023-10-31T07:38:06;93919.47;;;16.17;52.86
76086;BME280;64791;0.000;0.000;2023-10-31T07:40:33;93916.84;;;16.38;52.64
76086;BME280;64791;0.000;0.000;2023-10-31T07:42:59;93914.81;;;16.57;52.63
76086;BME280;64791;0.000;0.000;2023-10-31T07:45:24;93919.78;;;16.78;52.08
76086;BME280;64791;0.000;0.000;2023-10-31T07:47:50;93919.91;;;16.99;51.91
76086;BME280;64791;0.000;0.000;2023-10-31T07:50:16;93919.72;;;17.16;51.98
76086;BME280;64791;0.000;0.000;2023-10-31T07:52:42;93909.25;;;17.36;51.70
76086;BME280;64791;0.000;0.000;2023-10-31T07:55:09;93907.13;;;17.56;51.41
76086;BME280;64791;0.000;0.000;2023-10-31T07:57:36;93903.66;;;17.76;51.79
76086;BME280;64791;0.000;0.000;2023-10-31T08:00:02;93898.97;;;18.00;51.70
76086;BME280;64791;0.000;0.000;2023-10-31T08:02:37;93898.06;;;18.28;51.43
76086;BME280;64791;0.000;0.000;2023-10-31T08:05:03;93887.16;;;18.53;50.82
76086;BME280;64791;0.000;0.000;2023-10-31T08:07:29;93886.03;;;18.79;50.56
76086;BME280;64791;0.000;0.000;2023-10-31T08:09:55;93880.50;;;19.03;50.35
76086;BME280;64791;0.000;0.000;2023-10-31T08:12:22;93874.97;;;19.26;50.17
76086;BME280;64791;0.000;0.000;2023-10-31T08:14:48;93863.69;;;19.47;49.68
76086;BME280;64791;0.000;0.000;2023-10-31T08:17:13;93857.47;;;19.72;49.45
76086;BME280;64791;0.000;0.000;2023-10-31T08:19:39;93860.88;;;19.93;49.39
76086;BME280;64791;0.000;0.000;2023-10-31T08:22:05;93854.41;;;20.14;49.07
76086;BME280;64791;0.000;0.000;2023-10-31T08:24:31;93854.22;;;20.35;48.92
76086;BME280;64791;0.000;0.000;2023-10-31T08:26:57;93849.88;;;20.57;48.47
76086;BME280;64791;0.000;0.000;2023-10-31T08:29:23;93852.25;;;20.74;48.23
76086;BME280;64791;0.000;0.000;2023-10-31T08:31:48;93850.69;;;20.96;47.96
76086;BME280;64791;0.000;0.000;2023-10-31T08:34:14;93855.31;;;21.17;47.63
76086;BME280;64791;0.000;0.000;2023-10-31T08:36:40;93854.22;;;21.36;47.27
76086;BME280;64791;0.000;0.000;2023-10-31T08:39:05;93858.09;;;21.56;47.04
76086;BME280;64791;0.000;0.000;2023-10-31T08:41:31;93861.16;;;21.73;46.79
76086;BME280;64791;0.000;0.000;2023-10-31T08:43:57;93855.13;;;21.93;46.38
76086;BME280;64791;0.000;0.000;2023-10-31T08:46:23;93850.97;;;22.07;46.21
76086;BME280;64791;0.000;0.000;2023-10-31T08:48:49;93843.25;;;22.21;45.92
76086;BME280;64791;0.000;0.000;2023-10-31T08:51:15;93835.09;;;22.41;45.38
76086;BME280;64791;0.000;0.000;2023-10-31T08:53:41;93831.63;;;22.56;45.09
76086;BME280;64791;0.000;0.000;2023-10-31T08:56:07;93814.06;;;22.71;44.39
76086;BME280;64791;0.000;0.000;2023-10-31T08:58:32;93805.78;;;22.89;44.30
76086;BME280;64791;0.000;0.000;2023-10-31T09:00:58;93800.72;;;23.01;44.05
76086;BME280;64791;0.000;0.000;2023-10-31T09:03:24;93799.41;;;23.17;43.65
76086;BME280;64791;0.000;0.000;2023-10-31T09:05:50;93793.78;;;23.33;43.34
76086;BME280;64791;0.000;0.000;2023-10-31T09:08:16;93787.16;;;23.42;43.09
76086;BME280;64791;0.000;0.000;2023-10-31T09:10:42;93775.78;;;23.56;42.26
76086;BME280;64791;0.000;0.000;2023-10-31T09:13:11;93779.69;;;23.64;42.34
76086;BME280;64791;0.000;0.000;2023-10-31T09:15:37;93766.69;;;23.73;42.08
76086;BME280;64791;0.000;0.000;2023-10-31T09:18:04;93768.03;;;23.87;41.61
76086;BME280;64791;0.000;0.000;2023-10-31T09:20:29;93772.16;;;24.02;41.67
76086;BME280;64791;0.000;0.000;2023-10-31T09:22:55;93771.38;;;24.17;41.68
76086;BME280;64791;0.000;0.000;2023-10-31T09:25:21;93768.34;;;24.29;40.72
76086;BME280;64791;0.000;0.000;2023-10-31T09:27:46;93765.44;;;24.42;40.86
76086;BME280;64791;0.000;0.000;2023-10-31T09:30:12;93762.50;;;24.58;40.85
76086;BME280;64791;0.000;0.000;2023-10-31T09:32:38;93755.09;;;24.66;40.08
76086;BME280;64791;0.000;0.000;2023-10-31T09:35:03;93752.75;;;24.78;40.01
76086;BME280;64791;0.000;0.000;2023-10-31T09:37:29;93749.66;;;24.90;39.42
76086;BME280;64791;0.000;0.000;2023-10-31T09:39:54;93740.88;;;25.00;39.04
76086;BME280;64791;0.000;0.000;2023-10-31T09:42:20;93732.16;;;25.11;38.48
76086;BME280;64791;0.000;0.000;2023-10-31T09:44:45;93729.88;;;25.25;38.68
76086;BME280;64791;0.000;0.000;2023-10-31T09:47:11;93728.84;;;25.36;38.67
76086;BME280;64791;0.000;0.000;2023-10-31T09:49:37;93722.84;;;25.46;38.67
76086;BME280;64791;0.000;0.000;2023-10-31T09:52:03;93718.38;;;25.58;38.16
76086;BME280;64791;0.000;0.000;2023-10-31T09:54:29;93708.06;;;25.67;38.47
76086;BME280;64791;0.000;0.000;2023-10-31T09:56:55;93709.25;;;25.80;37.79
76086;BME280;64791;0.000;0.000;2023-10-31T09:59:20;93691.25;;;25.91;36.94
76086;BME280;64791;0.000;0.000;2023-10-31T10:01:46;93700.19;;;26.05;37.16
76086;BME280;64791;0.000;0.000;2023-10-31T10:04:12;93693.50;;;26.16;37.61
76086;BME280;64791;0.000;0.000;2023-10-31T10:06:49;93678.03;;;26.19;36.61
76086;BME280;64791;0.000;0.000;2023-10-31T10:09:15;93686.19;;;26.30;36.64
76086;BME280;64791;0.000;0.000;2023-10-31T10:11:41;93677.41;;;26.42;36.33
76086;BME280;64791;0.000;0.000;2023-10-31T10:14:07;93669.94;;;26.53;35.96
76086;BME280;64791;0.000;0.000;2023-10-31T10:16:34;93670.31;;;26.65;36.07
76086;BME280;64791;0.000;0.000;2023-10-31T10:19:16;93673.66;;;26.81;35.63
76086;BME280;64791;0.000;0.000;2023-10-31T10:21:48;93663.28;;;26.89;34.80
76086;BME280;64791;0.000;0.000;2023-10-31T10:24:15;93661.50;;;27.00;35.06
76086;BME280;64791;0.000;0.000;2023-10-31T10:26:40;93656.72;;;27.06;34.85
76086;BME280;64791;0.000;0.000;2023-10-31T10:29:06;93653.97;;;27.08;35.37
76086;BME280;64791;0.000;0.000;2023-10-31T10:31:31;93640.94;;;26.99;34.52
76086;BME280;64791;0.000;0.000;2023-10-31T10:33:57;93644.94;;;26.92;34.49
76086;BME280;64791;0.000;0.000;2023-10-31T10:36:23;93648.50;;;26.93;34.76
76086;BME280;64791;0.000;0.000;2023-10-31T10:38:51;93640.63;;;26.89;34.74
76086;BME280;64791;0.000;0.000;2023-10-31T10:41:19;93626.94;;;26.82;34.55
76086;BME280;64791;0.000;0.000;2023-10-31T10:43:45;93631.59;;;26.71;33.77
76086;BME280;64791;0.000;0.000;2023-10-31T10:46:12;93624.97;;;26.63;33.98
76086;BME280;64791;0.000;0.000;2023-10-31T10:48:42;93619.97;;;26.61;34.25
76086;BME280;64791;0.000;0.000;2023-10-31T10:51:18;93623.53;;;26.62;34.26
76086;BME280;64791;0.000;0.000;2023-10-31T10:53:51;93621.47;;;26.64;33.92
76086;BME280;64791;0.000;0.000;2023-10-31T10:56:25;93620.28;;;26.71;33.54
76086;BME280;64791;0.000;0.000;2023-10-31T10:59:01;93606.91;;;26.74;33.59
76086;BME280;64791;0.000;0.000;2023-10-31T11:01:30;93598.31;;;26.70;32.88
76086;BME280;64791;0.000;0.000;2023-10-31T11:03:56;93589.09;;;26.69;33.38
76086;BME280;64791;0.000;0.000;2023-10-31T11:06:22;93590.47;;;26.68;33.17
76086;BME280;64791;0.000;0.000;2023-10-31T11:08:48;93582.63;;;26.67;33.13
76086;BME280;64791;0.000;0.000;2023-10-31T11:11:14;93578.38;;;26.66;32.73
76086;BME280;64791;0.000;0.000;2023-10-31T11:13:43;93570.47;;;26.62;32.71
76086;BME280;64791;0.000;0.000;2023-10-31T11:16:11;93556.88;;;26.57;32.93
76086;BME280;64791;0.000;0.000;2023-10-31T11:18:38;93555.53;;;26.60;33.33
76086;BME280;64791;0.000;0.000;2023-10-31T11:21:04;93546.53;;;26.65;32.47
76086;BME280;64791;0.000;0.000;2023-10-31T11:23:30;93543.88;;;26.71;32.57
76086;BME280;64791;0.000;0.000;2023-10-31T11:25:56;93541.31;;;26.81;32.95
76086;BME280;64791;0.000;0.000;2023-10-31T11:28:21;93537.88;;;26.85;32.88
76086;BME280;64791;0.000;0.000;2023-10-31T11:30:50;93536.53;;;26.88;33.07
76086;BME280;64791;0.000;0.000;2023-10-31T11:33:16;93542.56;;;27.00;32.74
76086;BME280;64791;0.000;0.000;2023-10-31T11:35:44;93537.59;;;27.00;33.04
76086;BME280;64791;0.000;0.000;2023-10-31T11:38:14;93532.03;;;27.02;33.14
76086;BME280;64791;0.000;0.000;2023-10-31T11:43:12;93533.94;;;26.96;32.75
76086;BME280;64791;0.000;0.000;2023-10-31T11:45:44;93526.00;;;26.90;32.61
76086;BME280;64791;0.000;0.000;2023-10-31T11:48:12;93517.34;;;26.84;32.84
76086;BME280;64791;0.000;0.000;2023-10-31T11:50:38;93525.72;;;26.80;32.98
76086;BME280;64791;0.000;0.000;2023-10-31T11:53:11;93520.66;;;26.77;33.05
76086;BME280;64791;0.000;0.000;2023-10-31T11:55:41;93514.88;;;26.73;32.88
76086;BME280;64791;0.000;0.000;2023-10-31T11:58:14;93508.28;;;26.64;32.13
76086;BME280;64791;0.000;0.000;2023-10-31T12:00:39;93502.47;;;26.58;32.35
76086;BME280;64791;0.000;0.000;2023-10-31T12:03:05;93495.22;;;26.53;32.44
76086;BME280;64791;0.000;0.000;2023-10-31T12:05:31;93490.75;;;26.44;31.61
76086;BME280;64791;0.000;0.000;2023-10-31T12:07:56;93485.56;;;26.37;32.11
76086;BME280;64791;0.000;0.000;2023-10-31T12:10:26;93487.53;;;26.32;32.11
76086;BME280;64791;0.000;0.000;2023-10-31T12:12:55;93485.31;;;26.28;32.53
76086;BME280;64791;0.000;0.000;2023-10-31T12:15:21;93478.09;;;26.23;33.07
76086;BME280;64791;0.000;0.000;2023-10-31T12:17:47;93468.81;;;26.21;32.48
76086;BME280;64791;0.000;0.000;2023-10-31T12:20:13;93465.81;;;26.15;32.88
76086;BME280;64791;0.000;0.000;2023-10-31T12:22:39;93474.13;;;26.09;32.74
76086;BME280;64791;0.000;0.000;2023-10-31T12:25:06;93467.56;;;26.02;32.42
76086;BME280;64791;0.000;0.000;2023-10-31T12:27:44;93463.84;;;25.96;32.69
76086;BME280;64791;0.000;0.000;2023-10-31T12:30:11;93460.78;;;25.88;32.19
76086;BME280;64791;0.000;0.000;2023-10-31T12:32:38;93447.22;;;25.82;32.17
76086;BME280;64791;0.000;0.000;2023-10-31T12:35:05;93452.84;;;25.82;33.22
76086;BME280;64791;0.000;0.000;2023-10-31T12:37:30;93459.94;;;25.83;32.99
76086;BME280;64791;0.000;0.000;2023-10-31T12:39:56;93466.38;;;25.86;33.56
76086;BME280;64791;0.000;0.000;2023-10-31T12:42:23;93470.00;;;25.88;33.74
76086;BME280;64791;0.000;0.000;2023-10-31T12:44:54;93462.94;;;25.89;33.69
76086;BME280;64791;0.000;0.000;2023-10-31T12:47:21;93458.69;;;25.88;33.01
76086;BME280;64791;0.000;0.000;2023-10-31T12:49:47;93457.78;;;25.82;33.45
76086;BME280;64791;0.000;0.000;2023-10-31T12:52:13;93449.19;;;25.78;33.32
76086;BME280;64791;0.000;0.000;2023-10-31T12:54:39;93444.63;;;25.69;33.49
76086;BME280;64791;0.000;0.000;2023-10-31T12:57:06;93436.56;;;25.59;34.05
76086;BME280;64791;0.000;0.000;2023-10-31T12:59:32;93437.72;;;25.50;33.08
76086;BME280;64791;0.000;0.000;2023-10-31T13:01:58;93435.28;;;25.40;33.71
76086;BME280;64791;0.000;0.000;2023-10-31T13:04:25;93439.88;;;25.30;33.39
76086;BME280;64791;0.000;0.000;2023-10-31T13:06:58;93437.31;;;25.16;33.63
76086;BME280;64791;0.000;0.000;2023-10-31T13:09:28;93430.53;;;25.04;33.50
76086;BME280;64791;0.000;0.000;2023-10-31T13:11:56;93424.56;;;24.94;33.52